Time;durP1;ratioP1;P1;durP2;ratioP2;P2;SDS_P1;SDS_P2;PMS_P1;PMS_P2;Temp;Humidity;BMP_temperature;BMP_pressure;BME280_temperature;BME280_humidity;BME280_pressure;Samples;Min_cycle;Max_cycle;Signal;HPM_P1;HPM_P2
2021/06/01 00:01:31;;;;;;;12.00;8.35;;;;;;;15.87;100.00;101125.09;4938208;29;20042;-60
2021/06/01 00:03:58;;;;;;;15.07;8.40;;;;;;;15.76;100.00;101125.56;4937478;29;20609;-60
2021/06/01 00:06:26;;;;;;;13.85;8.45;;;;;;;15.75;100.00;101124.75;4928224;29;20048;-59
2021/06/01 00:08:54;;;;;;;12.73;7.50;;;;;;;15.61;100.00;101123.75;4934862;29;20051;-59
2021/06/01 00:11:23;;;;;;;12.95;7.38;;;;;;;15.57;100.00;101117.06;4931154;29;20336;-59
2021/06/01 00:13:51;;;;;;;14.13;8.75;;;;;;;15.56;100.00;101123.47;4932632;29;20045;-59
2021/06/01 00:16:20;;;;;;;13.57;8.57;;;;;;;15.43;100.00;101129.53;4933059;29;20052;-59
2021/06/01 00:18:48;;;;;;;12.95;8.35;;;;;;;15.37;100.00;101126.78;4933970;29;20096;-59
2021/06/01 00:21:15;;;;;;;12.82;8.90;;;;;;;15.28;100.00;101120.63;4939159;28;20082;-59
2021/06/01 00:23:43;;;;;;;12.52;8.55;;;;;;;15.17;100.00;101126.47;4929728;29;20443;-59
2021/06/01 00:26:11;;;;;;;13.15;8.02;;;;;;;15.10;100.00;101123.72;4935239;29;20035;-60
2021/06/01 00:28:41;;;;;;;17.02;8.95;;;;;;;15.15;100.00;101124.84;4933109;29;20052;-59
2021/06/01 00:31:09;;;;;;;12.20;9.15;;;;;;;15.13;100.00;101121.47;4930657;29;20051;-59
2021/06/01 00:33:37;;;;;;;12.95;9.02;;;;;;;15.15;100.00;101122.16;4931936;29;20044;-59
2021/06/01 00:36:06;;;;;;;12.30;8.80;;;;;;;15.00;100.00;101117.75;4924179;29;20047;-60
2021/06/01 00:38:33;;;;;;;12.93;8.18;;;;;;;14.86;100.00;101120.28;4936335;29;20435;-59
2021/06/01 00:41:01;;;;;;;14.50;8.98;;;;;;;14.97;100.00;101119.00;4935029;29;20346;-59
2021/06/01 00:43:28;;;;;;;19.30;9.52;;;;;;;14.91;100.00;101119.72;4928462;29;20043;-60
2021/06/01 00:45:57;;;;;;;14.85;8.95;;;;;;;14.76;100.00;101123.22;4935872;29;20051;-59
2021/06/01 00:48:25;;;;;;;12.70;9.30;;;;;;;14.89;100.00;101122.59;4934362;29;20056;-59
2021/06/01 00:50:53;;;;;;;17.10;9.10;;;;;;;14.89;100.00;101127.97;4933818;29;20043;-59
2021/06/01 00:53:21;;;;;;;12.75;8.77;;;;;;;14.83;100.00;101119.78;4929942;29;20051;-59
2021/06/01 00:55:49;;;;;;;12.40;9.75;;;;;;;14.88;100.00;101120.09;4931741;29;20106;-59
2021/06/01 00:58:16;;;;;;;15.32;9.35;;;;;;;14.63;100.00;101115.78;4932147;29;20043;-59
2021/06/01 01:03:29;;;;;;;13.52;9.30;;;;;;;14.64;100.00;101124.69;4922296;29;20483;-59
2021/06/01 01:06:03;;;;;;;15.68;9.27;;;;;;;14.58;100.00;101122.69;4932377;29;20300;-59
2021/06/01 01:08:45;;;;;;;12.63;9.02;;;;;;;14.61;100.00;101117.78;4933390;29;20035;-59
2021/06/01 01:11:19;;;;;;;14.55;8.80;;;;;;;14.53;100.00;101127.78;4933105;29;20298;-59
2021/06/01 01:13:49;;;;;;;14.43;8.98;;;;;;;14.53;100.00;101122.41;4930219;29;20050;-59
2021/06/01 01:16:17;;;;;;;13.32;8.77;;;;;;;14.53;100.00;101122.41;4931772;29;20395;-59
2021/06/01 01:18:51;;;;;;;13.73;9.40;;;;;;;14.60;100.00;101123.34;4939111;29;20327;-59
2021/06/01 01:21:21;;;;;;;14.45;9.75;;;;;;;14.49;100.00;101126.47;4928175;29;20044;-60
2021/06/01 01:23:59;;;;;;;14.18;9.25;;;;;;;14.37;100.00;101129.56;4933342;29;20050;-59
2021/06/01 01:26:36;;;;;;;13.30;9.20;;;;;;;14.37;100.00;101134.13;4934598;29;20035;-59
2021/06/01 01:29:07;;;;;;;14.25;9.57;;;;;;;14.33;100.00;101132.81;4932508;29;20378;-59
2021/06/01 01:31:42;;;;;;;15.50;9.95;;;;;;;14.28;100.00;101133.34;4931693;29;20114;-59
2021/06/01 01:34:11;;;;;;;18.17;10.30;;;;;;;14.11;100.00;101128.09;4930036;29;20056;-59
2021/06/01 01:36:39;;;;;;;13.57;9.35;;;;;;;14.04;100.00;101139.75;4941123;29;20059;-59
2021/06/01 01:39:08;;;;;;;14.15;9.05;;;;;;;13.98;100.00;101135.94;4935661;29;20067;-59
2021/06/01 01:41:36;;;;;;;15.88;9.63;;;;;;;14.07;100.00;101121.41;4942840;29;20514;-59
2021/06/01 01:44:09;;;;;;;14.57;9.77;;;;;;;14.08;100.00;101124.94;4938689;29;20443;-60
2021/06/01 01:46:52;;;;;;;14.40;9.95;;;;;;;14.10;100.00;101126.44;4934268;29;20043;-59
2021/06/01 01:49:22;;;;;;;15.00;10.05;;;;;;;14.14;100.00;101131.47;4932371;29;20062;-59
2021/06/01 01:51:53;;;;;;;14.20;10.00;;;;;;;14.08;100.00;101128.47;4935572;29;20474;-59
2021/06/01 01:54:23;;;;;;;14.48;11.07;;;;;;;14.02;100.00;101139.94;4932820;29;20063;-59
2021/06/01 01:56:54;;;;;;;14.35;9.73;;;;;;;13.87;100.00;101136.31;4937413;29;20297;-60
2021/06/01 01:59:24;;;;;;;17.08;10.52;;;;;;;13.78;100.00;101135.53;4932303;29;20185;-60
2021/06/01 02:01:53;;;;;;;13.32;9.43;;;;;;;13.77;100.00;101136.56;4936435;29;20047;-59
2021/06/01 02:04:24;;;;;;;19.05;9.80;;;;;;;13.83;100.00;101141.19;4939494;29;20076;-60
2021/06/01 02:06:52;;;;;;;15.00;9.88;;;;;;;13.90;100.00;101135.97;4932184;29;20039;-60
2021/06/01 02:09:21;;;;;;;14.40;9.90;;;;;;;13.91;100.00;101145.72;4937851;29;20110;-59
2021/06/01 02:11:48;;;;;;;15.10;10.15;;;;;;;13.91;100.00;101143.03;4934136;29;20430;-59
2021/06/01 02:14:17;;;;;;;17.50;9.60;;;;;;;13.84;100.00;101137.50;4939329;29;20044;-59
2021/06/01 02:16:44;;;;;;;18.08;10.13;;;;;;;13.83;100.00;101138.50;4935543;29;20079;-59
2021/06/01 02:19:13;;;;;;;13.93;10.18;;;;;;;13.75;100.00;101134.03;4935614;29;20047;-59
2021/06/01 02:22:00;;;;;;;16.08;9.90;;;;;;;13.54;100.00;101137.34;4939535;29;20055;-59
2021/06/01 02:24:32;;;;;;;15.27;9.57;;;;;;;13.32;100.00;101135.38;4934679;29;20060;-60
2021/06/01 02:27:08;;;;;;;16.98;10.40;;;;;;;13.25;100.00;101133.41;4931354;29;20055;-60
2021/06/01 02:29:39;;;;;;;18.23;11.35;;;;;;;13.04;100.00;101133.13;4936426;29;20039;-59
2021/06/01 02:32:07;;;;;;;20.00;10.73;;;;;;;12.97;100.00;101137.50;4933050;29;20047;-59
2021/06/01 02:34:38;;;;;;;21.00;11.07;;;;;;;12.92;100.00;101136.16;4932199;29;20047;-59
2021/06/01 02:37:08;;;;;;;15.27;10.05;;;;;;;12.94;100.00;101140.53;4934200;29;20288;-59
2021/06/01 02:39:36;;;;;;;19.00;10.30;;;;;;;13.16;100.00;101133.59;4935454;29;20564;-59
2021/06/01 02:42:05;;;;;;;14.93;10.50;;;;;;;13.17;100.00;101129.88;4939075;29;20048;-59
2021/06/01 02:44:34;;;;;;;20.27;10.13;;;;;;;12.94;100.00;101127.13;4930710;29;20055;-59
2021/06/01 02:47:05;;;;;;;17.05;9.85;;;;;;;13.11;100.00;101128.75;4938090;29;20394;-59
2021/06/01 02:49:34;;;;;;;16.75;10.77;;;;;;;13.14;100.00;101130.25;4934541;29;20425;-59
2021/06/01 02:52:02;;;;;;;17.05;10.13;;;;;;;13.01;100.00;101126.28;4936438;29;20051;-59
2021/06/01 02:54:31;;;;;;;19.42;10.60;;;;;;;12.78;100.00;101125.31;4929673;29;20051;-59
2021/06/01 02:56:59;;;;;;;17.77;10.27;;;;;;;12.84;100.00;101125.47;4934050;29;20056;-60
2021/06/01 02:59:26;;;;;;;15.50;10.20;;;;;;;12.63;100.00;101120.66;4937331;29;20375;-59
2021/06/01 03:01:54;;;;;;;17.67;10.05;;;;;;;12.48;100.00;101127.69;4932667;29;20046;-60
2021/06/01 03:04:22;;;;;;;16.55;10.43;;;;;;;12.07;100.00;101125.81;4931989;29;20058;-59
2021/06/01 03:06:49;;;;;;;17.63;10.98;;;;;;;12.04;100.00;101120.81;4936793;29;20319;-59
2021/06/01 03:09:17;;;;;;;22.25;12.10;;;;;;;11.90;100.00;101119.56;4937370;29;20291;-59
2021/06/01 03:11:47;;;;;;;16.00;10.85;;;;;;;11.82;100.00;101122.22;4938329;29;20498;-59
2021/06/01 03:14:15;;;;;;;18.88;11.70;;;;;;;11.89;100.00;101125.91;4931427;29;20048;-59
2021/06/01 03:16:42;;;;;;;21.92;11.65;;;;;;;11.85;100.00;101121.88;4935088;29;20054;-59
2021/06/01 03:19:09;;;;;;;16.00;10.43;;;;;;;11.86;100.00;101119.09;4932578;29;20195;-60
2021/06/01 03:21:38;;;;;;;18.05;10.77;;;;;;;11.66;100.00;101118.50;4933893;29;20056;-60
2021/06/01 03:24:06;;;;;;;18.85;11.85;;;;;;;11.79;100.00;101111.84;4934524;29;20040;-59
2021/06/01 03:26:34;;;;;;;18.60;12.25;;;;;;;11.65;100.00;101113.31;4933876;29;20066;-59
2021/06/01 03:29:02;;;;;;;18.38;12.02;;;;;;;11.53;100.00;101112.78;4930895;29;20062;-60
2021/06/01 03:31:32;;;;;;;15.48;11.13;;;;;;;11.43;100.00;101112.09;4931719;29;20036;-59
2021/06/01 03:33:59;;;;;;;16.25;11.20;;;;;;;11.48;100.00;101109.75;4932342;29;20126;-59
2021/06/01 03:36:27;;;;;;;18.02;11.85;;;;;;;11.40;100.00;101112.41;4933275;29;20052;-60
2021/06/01 03:38:55;;;;;;;15.80;11.88;;;;;;;11.24;100.00;101106.00;4933461;29;20044;-59
2021/06/01 03:41:22;;;;;;;24.27;12.02;;;;;;;11.22;100.00;101109.84;4934457;29;20055;-60
2021/06/01 03:43:50;;;;;;;22.58;11.93;;;;;;;11.20;100.00;101102.81;4931935;29;20058;-60
2021/06/01 03:46:19;;;;;;;20.20;11.98;;;;;;;11.08;100.00;101108.59;4914782;29;20451;-59
2021/06/01 03:48:47;;;;;;;17.90;11.73;;;;;;;11.27;100.00;101104.81;4932678;29;20051;-59
2021/06/01 03:51:14;;;;;;;17.88;13.18;;;;;;;11.19;100.00;101105.63;4926277;29;20051;-59
2021/06/01 03:53:42;;;;;;;19.27;12.32;;;;;;;11.37;100.00;101103.72;4932831;29;20043;-59
2021/06/01 03:56:10;;;;;;;22.05;11.93;;;;;;;11.27;100.00;101103.00;4934203;29;20047;-60
2021/06/01 03:58:37;;;;;;;16.67;12.30;;;;;;;11.22;100.00;101094.63;4934133;29;20383;-60
2021/06/01 04:01:06;;;;;;;20.40;11.98;;;;;;;11.28;100.00;101099.31;4928354;29;20118;-60
2021/06/01 04:03:40;;;;;;;23.17;13.40;;;;;;;11.30;100.00;101102.69;4932719;29;20067;-59
2021/06/01 04:06:08;;;;;;;19.58;12.05;;;;;;;11.45;100.00;101115.44;4936870;29;20044;-59
2021/06/01 04:08:36;;;;;;;17.80;11.38;;;;;;;11.42;100.00;101105.06;4933543;29;20047;-60
2021/06/01 04:11:03;;;;;;;21.02;11.85;;;;;;;11.36;100.00;101101.19;4930022;29;20079;-59
2021/06/01 04:13:32;;;;;;;18.02;12.18;;;;;;;11.34;100.00;101103.19;4933346;29;20249;-59
2021/06/01 04:16:00;;;;;;;21.45;11.52;;;;;;;11.38;100.00;101101.88;4936772;29;20047;-59
2021/06/01 04:18:27;;;;;;;20.45;11.77;;;;;;;11.35;100.00;101108.41;4935032;29;20051;-60
2021/06/01 04:20:56;;;;;;;21.02;11.52;;;;;;;11.30;100.00;101101.84;4931261;29;20071;-61
2021/06/01 04:23:23;;;;;;;22.48;12.50;;;;;;;11.34;100.00;101104.03;4935114;29;20846;-60
2021/06/01 04:25:51;;;;;;;19.30;12.35;;;;;;;11.30;100.00;101100.00;4936327;29;20466;-60
2021/06/01 04:28:19;;;;;;;19.08;11.95;;;;;;;11.48;100.00;101094.56;4931651;29;20158;-61
2021/06/01 04:30:46;;;;;;;19.13;11.55;;;;;;;11.64;100.00;101101.78;4936938;29;20043;-61
2021/06/01 04:33:14;;;;;;;20.88;11.88;;;;;;;11.60;100.00;101102.28;4930471;29;20043;-60
2021/06/01 04:35:42;;;;;;;15.70;11.23;;;;;;;11.61;100.00;101099.44;4938919;29;20439;-60
2021/06/01 04:38:11;;;;;;;20.35;12.07;;;;;;;12.02;100.00;101094.22;4932080;29;20447;-61
2021/06/01 04:40:38;;;;;;;15.32;10.82;;;;;;;12.53;100.00;101095.84;4934998;29;20048;-61
2021/06/01 04:43:06;;;;;;;16.90;10.98;;;;;;;12.75;100.00;101100.50;4934322;29;20316;-60
2021/06/01 04:45:33;;;;;;;16.35;11.27;;;;;;;12.99;100.00;101104.16;4935459;29;20087;-61
2021/06/01 04:48:01;;;;;;;16.63;10.50;;;;;;;13.25;100.00;101089.66;4930054;29;20044;-61
2021/06/01 04:50:28;;;;;;;17.73;10.57;;;;;;;13.38;100.00;101091.78;4935319;29;20039;-61
2021/06/01 04:52:56;;;;;;;17.35;11.25;;;;;;;13.48;100.00;101091.59;4928615;29;20040;-60
2021/06/01 04:55:25;;;;;;;16.63;10.32;;;;;;;13.63;100.00;101083.63;4933819;29;20035;-60
2021/06/01 04:57:52;;;;;;;18.15;9.73;;;;;;;13.61;100.00;101091.88;4931029;29;20106;-61
2021/06/01 05:00:20;;;;;;;17.27;9.85;;;;;;;13.62;100.00;101084.63;4935441;29;20392;-60
2021/06/01 05:02:47;;;;;;;18.23;9.90;;;;;;;13.72;100.00;101085.25;4929041;29;20075;-60
2021/06/01 05:05:16;;;;;;;15.80;10.35;;;;;;;13.84;100.00;101081.16;4929841;29;20114;-60
2021/06/01 05:07:43;;;;;;;16.45;9.35;;;;;;;14.08;100.00;101074.75;4931560;29;20047;-60
2021/06/01 05:10:11;;;;;;;13.82;8.80;;;;;;;14.46;100.00;101069.41;4929435;29;20239;-60
2021/06/01 05:12:40;;;;;;;13.27;8.70;;;;;;;14.63;100.00;101069.28;4935686;29;20043;-60
2021/06/01 05:15:11;;;;;;;12.35;8.27;;;;;;;14.84;100.00;101067.69;4926960;29;20051;-60
2021/06/01 05:17:40;;;;;;;12.07;7.80;;;;;;;14.91;100.00;101064.09;4933852;29;20099;-60
2021/06/01 05:20:08;;;;;;;12.13;7.88;;;;;;;15.12;100.00;101063.31;4931919;29;20443;-60
2021/06/01 05:22:35;;;;;;;12.50;7.63;;;;;;;15.25;100.00;101069.91;4932888;29;20051;-61
2021/06/01 05:25:03;;;;;;;12.32;7.38;;;;;;;15.43;100.00;101059.56;4923653;29;20048;-59
2021/06/01 05:27:32;;;;;;;11.30;7.75;;;;;;;15.60;100.00;101070.09;4930493;29;20055;-60
2021/06/01 05:30:03;;;;;;;13.48;7.05;;;;;;;15.69;100.00;101062.75;4927203;29;20375;-60
2021/06/01 05:35:20;;;;;;;16.67;7.93;;;;;;;15.87;100.00;101060.47;4920145;29;20056;-60
2021/06/01 05:37:50;;;;;;;11.07;7.50;;;;;;;16.14;100.00;101058.03;4932261;29;20054;-60
2021/06/01 05:40:18;;;;;;;11.32;7.60;;;;;;;16.15;100.00;101063.22;4928535;29;20044;-60
2021/06/01 05:42:46;;;;;;;9.75;6.95;;;;;;;16.69;100.00;101060.94;4934351;29;20340;-60
2021/06/01 05:45:15;;;;;;;12.55;8.55;;;;;;;17.34;100.00;101057.97;4929858;29;20059;-60
2021/06/01 05:47:42;;;;;;;13.85;7.40;;;;;;;17.63;100.00;101059.50;4929841;29;20466;-60
2021/06/01 05:50:10;;;;;;;12.02;6.97;;;;;;;18.05;100.00;101054.00;4931498;29;20052;-60
2021/06/01 05:52:38;;;;;;;14.73;7.53;;;;;;;18.14;100.00;101055.44;4930311;29;20051;-60
2021/06/01 05:55:08;;;;;;;10.95;7.57;;;;;;;18.36;100.00;101056.06;4930931;29;20121;-60
2021/06/01 05:57:35;;;;;;;11.48;7.43;;;;;;;18.48;100.00;101048.13;4929588;29;20043;-60
2021/06/01 06:00:04;;;;;;;12.45;6.82;;;;;;;18.37;100.00;101054.19;4932044;29;20056;-60
2021/06/01 06:02:33;;;;;;;8.55;6.47;;;;;;;18.71;100.00;101055.81;4932033;29;20044;-60
2021/06/01 06:05:01;;;;;;;10.18;6.90;;;;;;;18.92;100.00;101052.06;4927841;29;20443;-60
2021/06/01 06:07:29;;;;;;;10.50;6.75;;;;;;;19.00;100.00;101044.75;4937171;29;20054;-60
2021/06/01 06:09:56;;;;;;;12.32;6.90;;;;;;;19.18;100.00;101049.44;4932057;29;20471;-60
2021/06/01 06:12:24;;;;;;;13.57;6.63;;;;;;;19.44;100.00;101043.91;4927650;29;20044;-60
2021/06/01 06:14:51;;;;;;;9.88;7.13;;;;;;;19.92;100.00;101050.72;4931720;29;20040;-60
2021/06/01 06:17:29;;;;;;;11.52;7.05;;;;;;;19.84;100.00;101047.47;4933386;29;20047;-60
2021/06/01 06:20:00;;;;;;;9.15;6.28;;;;;;;19.88;100.00;101051.41;4936277;28;20040;-60
2021/06/01 06:22:27;;;;;;;9.48;6.65;;;;;;;19.98;100.00;101046.31;4936037;29;20342;-60
2021/06/01 06:24:55;;;;;;;9.77;5.45;;;;;;;20.08;100.00;101048.53;4934012;29;20040;-60
2021/06/01 06:27:22;;;;;;;12.75;5.82;;;;;;;20.01;100.00;101047.75;4938882;29;20071;-60
2021/06/01 06:29:50;;;;;;;8.90;6.20;;;;;;;20.56;100.00;101047.88;4931188;29;20051;-60
2021/06/01 06:32:17;;;;;;;7.88;5.40;;;;;;;20.77;100.00;101045.84;4928131;29;20066;-60
2021/06/01 06:34:45;;;;;;;9.38;5.75;;;;;;;21.05;100.00;101047.19;4933078;29;20056;-60
2021/06/01 06:37:14;;;;;;;10.18;5.30;;;;;;;21.53;100.00;101048.25;4936993;29;20055;-60
2021/06/01 06:39:41;;;;;;;8.30;5.10;;;;;;;21.54;100.00;101052.66;4940341;29;20058;-60
2021/06/01 06:42:09;;;;;;;10.18;5.00;;;;;;;21.93;100.00;101047.66;4934654;29;20043;-60
2021/06/01 06:44:37;;;;;;;7.35;4.63;;;;;;;22.49;100.00;101042.78;4941653;29;20047;-60
2021/06/01 06:47:17;;;;;;;5.47;4.30;;;;;;;21.98;100.00;101040.47;4935300;29;20122;-60
2021/06/01 06:49:45;;;;;;;7.00;4.70;;;;;;;21.56;100.00;101045.94;4932014;29;20122;-60
2021/06/01 06:52:14;;;;;;;7.70;4.90;;;;;;;21.73;100.00;101047.97;4938476;29;20047;-60
2021/06/01 06:54:42;;;;;;;6.57;4.75;;;;;;;21.65;100.00;101049.16;4933829;29;20095;-60
2021/06/01 06:57:09;;;;;;;6.93;4.78;;;;;;;22.05;100.00;101044.97;4936373;29;20040;-60
2021/06/01 06:59:37;;;;;;;7.30;4.28;;;;;;;22.75;100.00;101046.88;4937008;29;20147;-60
2021/06/01 07:02:06;;;;;;;8.60;4.65;;;;;;;22.88;100.00;101043.09;4929375;29;20055;-60
2021/06/01 07:04:34;;;;;;;5.78;4.75;;;;;;;22.32;100.00;101038.00;4935872;29;20051;-60
2021/06/01 07:07:02;;;;;;;5.72;3.75;;;;;;;22.79;100.00;101044.53;4934141;29;20455;-60
2021/06/01 07:09:31;;;;;;;5.85;3.63;;;;;;;23.06;100.00;101041.28;4933791;29;20051;-60
2021/06/01 07:11:58;;;;;;;5.93;3.80;;;;;;;23.11;100.00;101044.13;4937183;29;20055;-60
2021/06/01 07:14:39;;;;;;;5.28;4.60;;;;;;;23.70;100.00;101041.16;4934636;29;20116;-60
2021/06/01 07:17:07;;;;;;;5.15;4.03;;;;;;;22.65;100.00;101043.94;4934364;29;20039;-60
2021/06/01 07:19:34;;;;;;;7.75;3.50;;;;;;;23.21;100.00;101036.16;4936461;29;20111;-60
2021/06/01 07:22:02;;;;;;;4.90;3.67;;;;;;;23.13;100.00;101039.28;4938729;29;20051;-60
2021/06/01 07:24:31;;;;;;;4.82;3.47;;;;;;;23.24;100.00;101030.22;4935342;29;20055;-60
2021/06/01 07:26:58;;;;;;;4.70;3.35;;;;;;;23.21;100.00;101036.16;4934020;29;20060;-60
2021/06/01 07:29:26;;;;;;;4.85;3.83;;;;;;;23.65;100.00;101036.44;4937197;29;20047;-60
2021/06/01 07:31:55;;;;;;;4.53;3.80;;;;;;;24.15;100.00;101031.31;4932231;29;20035;-61
2021/06/01 07:34:22;;;;;;;6.53;3.63;;;;;;;23.98;100.00;101032.13;4934054;29;20075;-60
2021/06/01 07:36:50;;;;;;;5.20;3.10;;;;;;;24.13;100.00;101025.25;4932740;29;20371;-60
2021/06/01 07:39:17;;;;;;;7.13;4.15;;;;;;;23.78;98.93;101018.13;4936453;29;20055;-61
2021/06/01 07:41:46;;;;;;;4.25;2.90;;;;;;;23.84;91.46;101022.59;4936965;29;20054;-60
2021/06/01 07:44:14;;;;;;;5.43;3.30;;;;;;;23.66;89.38;101024.47;4931597;29;20051;-60
2021/06/01 07:46:41;;;;;;;6.70;3.60;;;;;;;23.55;100.00;101019.91;4934413;29;20107;-60
2021/06/01 07:49:09;;;;;;;4.50;3.15;;;;;;;23.55;96.72;101011.75;4932870;29;20043;-60
2021/06/01 07:51:38;;;;;;;4.07;3.35;;;;;;;23.59;100.00;101012.06;4933661;29;20421;-60
2021/06/01 07:54:06;;;;;;;5.05;3.28;;;;;;;23.21;86.02;101003.47;4931583;29;20091;-60
2021/06/01 07:56:34;;;;;;;4.88;3.30;;;;;;;23.69;100.00;100999.44;4930242;29;20119;-59
2021/06/01 07:59:03;;;;;;;7.57;3.50;;;;;;;23.90;76.26;100997.06;4939414;29;20044;-62
2021/06/01 08:01:31;;;;;;;6.75;3.42;;;;;;;23.97;83.62;101000.50;4934412;29;20048;-60
2021/06/01 08:03:58;;;;;;;5.20;3.25;;;;;;;24.03;73.86;100985.84;4934627;29;20054;-60
2021/06/01 08:06:30;;;;;;;3.55;3.22;;;;;;;23.38;69.95;100987.19;4935467;29;20071;-60
2021/06/01 08:08:57;;;;;;;4.03;3.55;;;;;;;24.05;63.89;100997.31;4932512;29;20044;-60
2021/06/01 08:11:25;;;;;;;3.58;2.95;;;;;;;24.77;94.13;100994.00;4936640;29;20126;-60
2021/06/01 08:13:52;;;;;;;3.78;2.88;;;;;;;25.03;73.04;100987.72;4930266;29;20101;-60
2021/06/01 08:16:21;;;;;;;3.42;2.90;;;;;;;24.21;65.42;100979.31;4934116;29;20095;-60
2021/06/01 08:18:59;;;;;;;3.83;2.47;;;;;;;23.86;67.16;100976.81;4935192;29;20043;-60
2021/06/01 08:21:38;;;;;;;3.80;2.72;;;;;;;24.23;82.73;100982.59;4932125;29;20110;-60
2021/06/01 08:24:06;;;;;;;4.28;2.47;;;;;;;24.52;70.96;100978.91;4933030;29;20098;-60
2021/06/01 08:26:34;;;;;;;4.28;3.00;;;;;;;24.20;64.95;100987.75;4933521;29;20048;-60
2021/06/01 08:29:02;;;;;;;3.75;2.42;;;;;;;24.31;58.94;100981.34;4932396;29;20052;-60
2021/06/01 08:31:31;;;;;;;3.30;2.67;;;;;;;24.78;53.84;100984.72;4930637;29;20040;-60
2021/06/01 08:33:59;;;;;;;3.55;2.80;;;;;;;24.85;56.47;100979.88;4927099;29;20055;-60
2021/06/01 08:36:27;;;;;;;9.82;3.55;;;;;;;25.37;56.23;100984.84;4933446;29;20047;-60
2021/06/01 08:38:55;;;;;;;4.45;2.80;;;;;;;26.32;69.28;100983.44;4934937;29;20115;-60
2021/06/01 08:41:22;;;;;;;3.40;2.50;;;;;;;24.96;58.02;100978.91;4932513;29;20052;-61
2021/06/01 08:43:51;;;;;;;5.30;2.58;;;;;;;25.04;50.87;100974.91;4931115;29;20055;-60
2021/06/01 08:46:22;;;;;;;3.40;3.10;;;;;;;24.41;54.21;100973.31;4933963;29;20035;-59
2021/06/01 08:48:52;;;;;;;4.28;3.03;;;;;;;24.78;60.64;100971.91;4930470;29;20391;-60
2021/06/01 08:51:20;;;;;;;5.72;2.63;;;;;;;25.32;51.01;100981.22;4927307;29;20474;-60
2021/06/01 08:53:48;;;;;;;5.18;2.78;;;;;;;24.69;56.06;100968.75;4929729;29;20048;-60
2021/06/01 08:56:16;;;;;;;2.80;2.30;;;;;;;24.72;53.14;100968.28;4934266;29;20383;-60
2021/06/01 08:58:44;;;;;;;3.25;2.83;;;;;;;24.71;58.99;100965.81;4931681;29;20046;-60
2021/06/01 09:01:12;;;;;;;3.95;2.65;;;;;;;24.58;56.03;100970.53;4930307;29;20039;-60
2021/06/01 09:03:42;;;;;;;4.85;2.67;;;;;;;25.75;56.18;100966.59;4930298;29;20106;-60
2021/06/01 09:06:20;;;;;;;3.55;2.60;;;;;;;24.95;50.90;100969.09;4933149;29;20255;-60
2021/06/01 09:11:41;;;;;;;3.70;2.78;;;;;;;25.19;58.07;100955.97;4925753;29;20055;-60
2021/06/01 09:14:40;;;;;;;3.53;2.47;;;;;;;24.49;46.24;100954.84;4932988;29;20055;-60
2021/06/01 09:22:50;;;;;;;4.20;2.67;;;;;;;25.03;46.23;100963.16;4934952;29;20048;-60
2021/06/01 09:25:22;;;;;;;3.35;2.28;;;;;;;25.02;53.48;100966.97;4934068;29;20133;-60
2021/06/01 09:27:51;;;;;;;4.43;2.47;;;;;;;25.21;43.74;100948.31;4935487;29;20164;-60
2021/06/01 09:30:39;;;;;;;5.38;2.60;;;;;;;25.00;42.27;100952.75;4931314;29;20447;-60
2021/06/01 09:33:09;;;;;;;3.85;2.45;;;;;;;25.18;43.53;100957.03;4931332;29;20039;-60
2021/06/01 09:35:48;;;;;;;2.85;2.33;;;;;;;25.16;49.20;100950.16;4932731;29;20059;-60
2021/06/01 09:38:19;;;;;;;3.20;2.40;;;;;;;25.34;55.21;100951.75;4932904;29;20051;-60
2021/06/01 09:40:47;;;;;;;4.00;2.72;;;;;;;25.86;47.17;100953.03;4932009;29;20044;-60
2021/06/01 09:43:15;;;;;;;4.65;2.60;;;;;;;26.26;58.02;100946.19;4936515;29;20066;-60
2021/06/01 09:45:44;;;;;;;2.75;2.45;;;;;;;26.98;53.50;100941.00;4932139;29;20223;-60
2021/06/01 09:48:12;;;;;;;5.45;2.53;;;;;;;26.53;46.17;100940.56;4932022;29;20059;-60
2021/06/01 09:50:45;;;;;;;3.13;2.30;;;;;;;25.76;43.59;100940.09;4928535;29;20057;-60
2021/06/01 09:53:18;;;;;;;3.05;2.40;;;;;;;25.25;44.43;100937.72;4928539;29;20343;-60
2021/06/01 09:55:47;;;;;;;3.47;2.20;;;;;;;25.68;50.86;100935.91;4937208;29;20335;-60
2021/06/01 09:58:16;;;;;;;3.97;2.72;;;;;;;26.08;59.39;100939.22;4937184;29;20043;-60
2021/06/01 10:00:47;;;;;;;4.15;2.50;;;;;;;25.43;46.77;100939.25;4936668;29;20044;-60
2021/06/01 10:03:17;;;;;;;2.97;2.65;;;;;;;25.05;57.21;100938.34;4930712;29;20051;-60
2021/06/01 10:05:47;;;;;;;5.22;2.70;;;;;;;24.95;45.08;100935.47;4933280;29;20042;-60
2021/06/01 10:08:17;;;;;;;2.95;2.47;;;;;;;25.08;47.52;100937.81;4935945;29;20044;-60
2021/06/01 10:10:51;;;;;;;3.63;2.28;;;;;;;25.16;41.46;100939.25;4936381;29;20413;-60
2021/06/01 10:13:19;;;;;;;3.10;2.37;;;;;;;26.15;54.31;100925.31;4930951;29;20039;-60
2021/06/01 10:15:46;;;;;;;2.65;2.33;;;;;;;26.77;44.15;100921.78;4935537;29;20055;-60
2021/06/01 10:18:16;;;;;;;4.03;2.70;;;;;;;26.40;53.25;100925.44;4936738;29;20051;-61
2021/06/01 10:20:45;;;;;;;3.17;2.35;;;;;;;25.60;43.21;100928.19;4933274;29;20264;-60
2021/06/01 10:23:18;;;;;;;2.80;2.60;;;;;;;25.41;43.45;100919.56;4931207;29;20040;-60
2021/06/01 10:25:46;;;;;;;5.80;2.75;;;;;;;25.24;48.48;100908.72;4933764;29;20098;-60
2021/06/01 10:28:23;;;;;;;3.53;2.60;;;;;;;25.07;45.61;100917.84;4936891;29;20055;-59
2021/06/01 10:30:50;;;;;;;4.10;2.75;;;;;;;25.66;45.00;100918.97;4933535;29;20122;-60
2021/06/01 10:33:19;;;;;;;3.95;2.38;;;;;;;26.03;63.68;100915.41;4932538;29;20048;-60
2021/06/01 10:35:56;;;;;;;5.28;2.78;;;;;;;26.25;46.40;100917.16;4932672;29;20075;-59
2021/06/01 10:44:45;;;;;;;3.92;2.78;;;;;;;25.57;47.58;100906.84;4892123;29;20481;-60
2021/06/01 10:50:39;;;;;;;4.40;2.88;;;;;;;25.64;44.47;100895.69;4921319;29;20059;-60
2021/06/01 10:53:13;;;;;;;3.28;2.63;;;;;;;26.03;41.08;100885.31;4920698;29;20055;-59
2021/06/01 10:56:03;;;;;;;3.40;3.03;;;;;;;25.63;45.64;100881.22;4933814;29;20043;-60
2021/06/01 10:59:04;;;;;;;4.55;2.95;;;;;;;26.00;52.43;100879.50;4935010;29;20285;-60
2021/06/01 11:01:53;;;;;;;3.30;2.67;;;;;;;25.32;40.03;100874.66;4932325;29;20114;-60
2021/06/01 11:04:24;;;;;;;3.22;2.60;;;;;;;25.61;50.45;100873.25;4929370;29;20055;-60
2021/06/01 11:09:53;;;;;;;5.05;2.40;;;;;;;25.44;48.85;100878.03;4930990;29;20122;-60
2021/06/01 11:12:42;;;;;;;3.65;2.72;;;;;;;26.28;53.46;100883.78;4932033;29;20054;-59
2021/06/01 11:15:29;;;;;;;3.58;2.80;;;;;;;26.62;43.62;100877.88;4928997;29;20047;-60
2021/06/01 11:18:18;;;;;;;2.58;2.33;;;;;;;27.30;45.70;100874.16;4931793;29;20075;-60
2021/06/01 11:21:18;;;;;;;3.20;2.35;;;;;;;27.03;42.81;100867.03;4934582;29;20048;-60
2021/06/01 11:32:56;;;;;;;9.50;3.38;;;;;;;27.10;47.90;100864.84;4930704;29;20040;-60
2021/06/01 11:35:27;;;;;;;4.35;2.58;;;;;;;27.36;45.69;100864.91;4932970;29;20300;-60
2021/06/01 11:38:01;;;;;;;2.92;2.60;;;;;;;26.57;49.80;100864.19;4932454;29;20052;-60
2021/06/01 11:40:34;;;;;;;2.53;2.33;;;;;;;26.27;45.81;100849.31;4932375;29;20567;-60
2021/06/01 11:43:03;;;;;;;3.63;2.55;;;;;;;26.25;45.98;100840.53;4933487;29;20249;-60
2021/06/01 11:45:42;;;;;;;3.47;2.65;;;;;;;26.06;42.53;100845.66;4931012;29;20043;-60
2021/06/01 11:48:25;;;;;;;3.33;2.78;;;;;;;26.40;49.08;100840.59;4933810;29;20043;-61
2021/06/01 11:51:12;;;;;;;4.07;2.53;;;;;;;25.89;50.20;100846.63;4931315;29;20091;-60
2021/06/01 11:53:51;;;;;;;3.35;2.42;;;;;;;26.24;39.89;100849.81;4934726;29;20047;-60
2021/06/01 11:56:33;;;;;;;4.78;2.58;;;;;;;26.82;43.77;100835.22;4935337;29;20408;-60
2021/06/01 12:02:15;;;;;;;;;;;;;;;26.70;40.98;100821.81;4933779;29;20054;-60
2021/06/01 12:05:05;;;;;;;5.93;3.28;;;;;;;25.76;40.39;100827.97;4927262;29;19934;-60
2021/06/01 12:18:55;;;;;;;2.58;2.20;;;;;;;26.83;40.81;100834.97;4932094;29;20043;-60